sensor_id;sensor_type;location;lat;lon;timestamp;temperature;humidity
24772;DHT22;12870;52.274;9.754;2023-03-19T00:02:11;10.90;99.90
24772;DHT22;12870;52.274;9.754;2023-03-19T00:04:37;10.90;99.90
24772;DHT22;12870;52.274;9.754;2023-03-19T00:07:03;10.80;99.90
24772;DHT22;12870;52.274;9.754;2023-03-19T00:09:28;10.80;99.90
24772;DHT22;12870;52.274;9.754;2023-03-19T00:11:54;10.80;99.90
24772;DHT22;12870;52.274;9.754;2023-03-19T00:14:21;10.80;99.90
24772;DHT22;12870;52.274;9.754;2023-03-19T00:16:47;10.80;99.90
24772;DHT22;12870;52.274;9.754;2023-03-19T00:19:12;10.80;99.90
24772;DHT22;12870;52.274;9.754;2023-03-19T00:21:38;10.70;99.90
24772;DHT22;12870;52.274;9.754;2023-03-19T00:24:04;10.70;99.90
24772;DHT22;12870;52.274;9.754;2023-03-19T00:26:33;10.60;99.90
24772;DHT22;12870;52.274;9.754;2023-03-19T00:29:00;10.50;99.90
24772;DHT22;12870;52.274;9.754;2023-03-19T00:31:26;10.50;99.90
24772;DHT22;12870;52.274;9.754;2023-03-19T00:33:53;10.40;99.90
24772;DHT22;12870;52.274;9.754;2023-03-19T00:36:21;10.30;99.90
24772;DHT22;12870;52.274;9.754;2023-03-19T00:38:48;10.30;99.90
24772;DHT22;12870;52.274;9.754;2023-03-19T00:41:13;10.30;99.90
24772;DHT22;12870;52.274;9.754;2023-03-19T00:43:41;10.20;99.90
24772;DHT22;12870;52.274;9.754;2023-03-19T00:46:07;10.10;99.90
24772;DHT22;12870;52.274;9.754;2023-03-19T00:48:33;10.10;99.90
24772;DHT22;12870;52.274;9.754;2023-03-19T00:51:16;10.10;99.90
24772;DHT22;12870;52.274;9.754;2023-03-19T00:53:43;10.00;99.90
24772;DHT22;12870;52.274;9.754;2023-03-19T00:56:11;9.90;99.90
24772;DHT22;12870;52.274;9.754;2023-03-19T00:58:37;9.80;99.90
24772;DHT22;12870;52.274;9.754;2023-03-19T01:01:04;9.80;99.90
24772;DHT22;12870;52.274;9.754;2023-03-19T01:03:30;9.70;99.90
24772;DHT22;12870;52.274;9.754;2023-03-19T01:05:57;9.60;99.90
24772;DHT22;12870;52.274;9.754;2023-03-19T01:08:23;9.60;99.90
24772;DHT22;12870;52.274;9.754;2023-03-19T01:10:49;9.50;99.90
24772;DHT22;12870;52.274;9.754;2023-03-19T01:13:14;9.40;99.90
24772;DHT22;12870;52.274;9.754;2023-03-19T01:15:41;9.40;99.90
24772;DHT22;12870;52.274;9.754;2023-03-19T01:18:08;9.40;99.90
24772;DHT22;12870;52.274;9.754;2023-03-19T01:20:35;9.30;99.90
24772;DHT22;12870;52.274;9.754;2023-03-19T01:23:01;9.30;99.90
24772;DHT22;12870;52.274;9.754;2023-03-19T01:25:27;9.30;99.90
24772;DHT22;12870;52.274;9.754;2023-03-19T01:27:53;9.20;99.90
24772;DHT22;12870;52.274;9.754;2023-03-19T01:30:19;9.20;99.90
24772;DHT22;12870;52.274;9.754;2023-03-19T01:32:45;9.10;99.90
24772;DHT22;12870;52.274;9.754;2023-03-19T01:35:10;9.10;99.90
24772;DHT22;12870;52.274;9.754;2023-03-19T01:37:36;9.10;99.90
24772;DHT22;12870;52.274;9.754;2023-03-19T01:40:04;9.00;99.90
24772;DHT22;12870;52.274;9.754;2023-03-19T01:42:31;9.00;99.90
24772;DHT22;12870;52.274;9.754;2023-03-19T01:44:57;9.00;99.90
24772;DHT22;12870;52.274;9.754;2023-03-19T01:47:37;9.00;99.90
24772;DHT22;12870;52.274;9.754;2023-03-19T01:50:04;9.00;99.90
24772;DHT22;12870;52.274;9.754;2023-03-19T01:52:32;8.90;99.90
24772;DHT22;12870;52.274;9.754;2023-03-19T01:55:02;8.90;99.90
24772;DHT22;12870;52.274;9.754;2023-03-19T01:57:30;9.00;99.90
24772;DHT22;12870;52.274;9.754;2023-03-19T01:59:59;8.90;99.90
24772;DHT22;12870;52.274;9.754;2023-03-19T02:02:31;9.00;99.90
24772;DHT22;12870;52.274;9.754;2023-03-19T02:05:04;8.90;99.90
24772;DHT22;12870;52.274;9.754;2023-03-19T02:07:32;8.90;99.90
24772;DHT22;12870;52.274;9.754;2023-03-19T02:10:00;8.90;99.90
24772;DHT22;12870;52.274;9.754;2023-03-19T02:12:26;8.90;99.90
24772;DHT22;12870;52.274;9.754;2023-03-19T02:14:52;8.90;99.90
24772;DHT22;12870;52.274;9.754;2023-03-19T02:17:20;8.90;99.90
24772;DHT22;12870;52.274;9.754;2023-03-19T02:22:14;8.90;99.90
24772;DHT22;12870;52.274;9.754;2023-03-19T02:24:50;8.90;99.90
24772;DHT22;12870;52.274;9.754;2023-03-19T02:27:18;8.90;99.90
24772;DHT22;12870;52.274;9.754;2023-03-19T02:29:44;8.90;99.90
24772;DHT22;12870;52.274;9.754;2023-03-19T02:32:10;8.90;99.90
24772;DHT22;12870;52.274;9.754;2023-03-19T02:34:42;8.90;99.90
24772;DHT22;12870;52.274;9.754;2023-03-19T02:37:25;8.90;99.90
24772;DHT22;12870;52.274;9.754;2023-03-19T02:40:02;8.90;99.90
24772;DHT22;12870;52.274;9.754;2023-03-19T02:42:30;8.90;99.90
24772;DHT22;12870;52.274;9.754;2023-03-19T02:44:56;8.90;99.90
24772;DHT22;12870;52.274;9.754;2023-03-19T02:47:23;9.00;99.90
24772;DHT22;12870;52.274;9.754;2023-03-19T02:49:49;9.00;99.90
24772;DHT22;12870;52.274;9.754;2023-03-19T02:52:14;9.10;99.90
24772;DHT22;12870;52.274;9.754;2023-03-19T02:54:41;9.20;99.90
24772;DHT22;12870;52.274;9.754;2023-03-19T02:57:07;9.30;99.90
24772;DHT22;12870;52.274;9.754;2023-03-19T02:59:33;9.30;99.90
24772;DHT22;12870;52.274;9.754;2023-03-19T03:01:58;9.40;99.90
24772;DHT22;12870;52.274;9.754;2023-03-19T03:04:24;9.40;99.90
24772;DHT22;12870;52.274;9.754;2023-03-19T03:06:51;9.40;99.90
24772;DHT22;12870;52.274;9.754;2023-03-19T03:09:17;9.40;99.90
24772;DHT22;12870;52.274;9.754;2023-03-19T03:11:43;9.40;99.90
24772;DHT22;12870;52.274;9.754;2023-03-19T03:14:09;9.50;99.90
24772;DHT22;12870;52.274;9.754;2023-03-19T03:16:35;9.40;99.90
24772;DHT22;12870;52.274;9.754;2023-03-19T03:19:02;9.40;99.90
24772;DHT22;12870;52.274;9.754;2023-03-19T03:21:28;9.40;99.90
24772;DHT22;12870;52.274;9.754;2023-03-19T03:23:54;9.40;99.90
24772;DHT22;12870;52.274;9.754;2023-03-19T03:26:20;9.30;99.90
24772;DHT22;12870;52.274;9.754;2023-03-19T03:28:46;9.30;99.90
24772;DHT22;12870;52.274;9.754;2023-03-19T03:31:12;9.30;99.90
24772;DHT22;12870;52.274;9.754;2023-03-19T03:33:38;9.30;99.90
24772;DHT22;12870;52.274;9.754;2023-03-19T03:36:05;9.40;99.90
24772;DHT22;12870;52.274;9.754;2023-03-19T03:38:31;9.40;99.90
24772;DHT22;12870;52.274;9.754;2023-03-19T03:40:57;9.40;99.90
24772;DHT22;12870;52.274;9.754;2023-03-19T03:43:23;9.40;99.90
24772;DHT22;12870;52.274;9.754;2023-03-19T03:45:50;9.40;99.90
24772;DHT22;12870;52.274;9.754;2023-03-19T03:48:16;9.40;99.90
24772;DHT22;12870;52.274;9.754;2023-03-19T03:50:42;9.30;99.90
24772;DHT22;12870;52.274;9.754;2023-03-19T03:53:08;9.30;99.90
24772;DHT22;12870;52.274;9.754;2023-03-19T03:55:35;9.40;99.90
24772;DHT22;12870;52.274;9.754;2023-03-19T03:58:01;9.30;99.90
24772;DHT22;12870;52.274;9.754;2023-03-19T04:00:27;9.40;99.90
24772;DHT22;12870;52.274;9.754;2023-03-19T04:02:53;9.40;99.90
24772;DHT22;12870;52.274;9.754;2023-03-19T04:05:19;9.40;99.90
24772;DHT22;12870;52.274;9.754;2023-03-19T04:07:44;9.30;99.90
24772;DHT22;12870;52.274;9.754;2023-03-19T04:10:11;9.30;99.90
24772;DHT22;12870;52.274;9.754;2023-03-19T04:12:38;9.30;99.90
24772;DHT22;12870;52.274;9.754;2023-03-19T04:15:05;9.30;99.90
24772;DHT22;12870;52.274;9.754;2023-03-19T04:17:32;9.30;99.90
24772;DHT22;12870;52.274;9.754;2023-03-19T04:19:58;9.30;99.90
24772;DHT22;12870;52.274;9.754;2023-03-19T04:22:23;9.30;99.90
24772;DHT22;12870;52.274;9.754;2023-03-19T04:24:49;9.40;99.90
24772;DHT22;12870;52.274;9.754;2023-03-19T04:27:15;9.40;99.90
24772;DHT22;12870;52.274;9.754;2023-03-19T04:29:41;9.40;99.90
24772;DHT22;12870;52.274;9.754;2023-03-19T04:32:07;9.50;99.90
24772;DHT22;12870;52.274;9.754;2023-03-19T04:34:32;9.60;99.90
24772;DHT22;12870;52.274;9.754;2023-03-19T04:36:58;9.60;99.90
24772;DHT22;12870;52.274;9.754;2023-03-19T04:39:24;9.70;99.90
24772;DHT22;12870;52.274;9.754;2023-03-19T04:41:50;9.70;99.90
24772;DHT22;12870;52.274;9.754;2023-03-19T04:44:16;9.70;99.90
24772;DHT22;12870;52.274;9.754;2023-03-19T04:46:42;9.70;99.90
24772;DHT22;12870;52.274;9.754;2023-03-19T04:49:09;9.70;99.90
24772;DHT22;12870;52.274;9.754;2023-03-19T04:51:35;9.70;99.90
24772;DHT22;12870;52.274;9.754;2023-03-19T04:54:01;9.70;99.90
24772;DHT22;12870;52.274;9.754;2023-03-19T04:56:26;9.70;99.90
24772;DHT22;12870;52.274;9.754;2023-03-19T04:58:52;9.60;99.90
24772;DHT22;12870;52.274;9.754;2023-03-19T05:01:18;9.50;99.90
24772;DHT22;12870;52.274;9.754;2023-03-19T05:03:44;9.50;99.90
24772;DHT22;12870;52.274;9.754;2023-03-19T05:06:11;9.50;99.90
24772;DHT22;12870;52.274;9.754;2023-03-19T05:08:36;9.50;99.90
24772;DHT22;12870;52.274;9.754;2023-03-19T05:11:02;9.50;99.90
24772;DHT22;12870;52.274;9.754;2023-03-19T05:13:28;9.60;99.90
24772;DHT22;12870;52.274;9.754;2023-03-19T05:15:55;9.60;99.90
24772;DHT22;12870;52.274;9.754;2023-03-19T05:18:21;9.60;99.90
24772;DHT22;12870;52.274;9.754;2023-03-19T05:20:47;9.50;99.90
24772;DHT22;12870;52.274;9.754;2023-03-19T05:23:13;9.60;99.90
24772;DHT22;12870;52.274;9.754;2023-03-19T05:25:39;9.50;99.90
24772;DHT22;12870;52.274;9.754;2023-03-19T05:28:05;9.50;99.90
24772;DHT22;12870;52.274;9.754;2023-03-19T05:30:32;9.50;99.90
24772;DHT22;12870;52.274;9.754;2023-03-19T05:32:59;9.50;99.90
24772;DHT22;12870;52.274;9.754;2023-03-19T05:35:26;9.50;99.90
24772;DHT22;12870;52.274;9.754;2023-03-19T05:37:52;9.60;99.90
24772;DHT22;12870;52.274;9.754;2023-03-19T05:40:18;9.60;99.90
24772;DHT22;12870;52.274;9.754;2023-03-19T05:42:44;9.70;99.90
24772;DHT22;12870;52.274;9.754;2023-03-19T05:45:10;9.80;99.90
24772;DHT22;12870;52.274;9.754;2023-03-19T05:47:36;9.90;99.90
24772;DHT22;12870;52.274;9.754;2023-03-19T05:50:02;10.00;99.90
24772;DHT22;12870;52.274;9.754;2023-03-19T05:52:27;10.10;99.90
24772;DHT22;12870;52.274;9.754;2023-03-19T05:54:53;10.10;99.90
24772;DHT22;12870;52.274;9.754;2023-03-19T05:57:19;10.20;99.90
24772;DHT22;12870;52.274;9.754;2023-03-19T05:59:45;10.20;99.90
24772;DHT22;12870;52.274;9.754;2023-03-19T06:02:11;10.30;99.90
24772;DHT22;12870;52.274;9.754;2023-03-19T06:04:37;10.40;99.90
24772;DHT22;12870;52.274;9.754;2023-03-19T06:07:02;10.40;99.90
24772;DHT22;12870;52.274;9.754;2023-03-19T06:09:29;10.40;99.90
24772;DHT22;12870;52.274;9.754;2023-03-19T06:11:54;10.40;99.90
24772;DHT22;12870;52.274;9.754;2023-03-19T06:14:20;10.40;99.90
24772;DHT22;12870;52.274;9.754;2023-03-19T06:16:46;10.50;99.90
24772;DHT22;12870;52.274;9.754;2023-03-19T06:19:12;10.50;99.90
24772;DHT22;12870;52.274;9.754;2023-03-19T06:21:37;10.50;99.90
24772;DHT22;12870;52.274;9.754;2023-03-19T06:24:03;10.50;99.90
24772;DHT22;12870;52.274;9.754;2023-03-19T06:26:29;10.60;99.90
24772;DHT22;12870;52.274;9.754;2023-03-19T06:28:54;10.70;99.90
24772;DHT22;12870;52.274;9.754;2023-03-19T06:31:20;10.60;99.90
24772;DHT22;12870;52.274;9.754;2023-03-19T06:33:46;10.70;99.90
24772;DHT22;12870;52.274;9.754;2023-03-19T06:36:11;10.80;99.90
24772;DHT22;12870;52.274;9.754;2023-03-19T06:38:37;10.80;99.90
24772;DHT22;12870;52.274;9.754;2023-03-19T06:41:03;10.90;99.90
24772;DHT22;12870;52.274;9.754;2023-03-19T06:43:29;10.90;99.90
24772;DHT22;12870;52.274;9.754;2023-03-19T06:45:55;10.90;99.90
24772;DHT22;12870;52.274;9.754;2023-03-19T06:48:21;10.90;99.90
24772;DHT22;12870;52.274;9.754;2023-03-19T06:50:47;11.00;99.90
24772;DHT22;12870;52.274;9.754;2023-03-19T06:53:13;11.00;99.90
24772;DHT22;12870;52.274;9.754;2023-03-19T06:55:39;11.00;99.90
24772;DHT22;12870;52.274;9.754;2023-03-19T06:58:05;11.00;99.90
24772;DHT22;12870;52.274;9.754;2023-03-19T07:00:32;11.00;99.90
24772;DHT22;12870;52.274;9.754;2023-03-19T07:02:58;11.00;99.90
24772;DHT22;12870;52.274;9.754;2023-03-19T07:05:23;11.00;99.90
24772;DHT22;12870;52.274;9.754;2023-03-19T07:07:49;11.10;99.90
24772;DHT22;12870;52.274;9.754;2023-03-19T07:10:18;11.10;99.90
24772;DHT22;12870;52.274;9.754;2023-03-19T07:12:43;11.10;99.90
24772;DHT22;12870;52.274;9.754;2023-03-19T07:15:09;11.20;99.90
24772;DHT22;12870;52.274;9.754;2023-03-19T07:17:35;11.20;99.90
24772;DHT22;12870;52.274;9.754;2023-03-19T07:20:01;11.30;99.90
24772;DHT22;12870;52.274;9.754;2023-03-19T07:22:26;11.30;99.90
24772;DHT22;12870;52.274;9.754;2023-03-19T07:24:52;11.30;99.90
24772;DHT22;12870;52.274;9.754;2023-03-19T07:27:17;11.30;99.90
24772;DHT22;12870;52.274;9.754;2023-03-19T07:29:43;11.30;99.90
24772;DHT22;12870;52.274;9.754;2023-03-19T07:32:09;11.30;99.90
24772;DHT22;12870;52.274;9.754;2023-03-19T07:34:35;11.40;99.90
24772;DHT22;12870;52.274;9.754;2023-03-19T07:37:01;11.40;99.90
24772;DHT22;12870;52.274;9.754;2023-03-19T07:39:27;11.40;99.90
24772;DHT22;12870;52.274;9.754;2023-03-19T07:41:52;11.40;99.90
24772;DHT22;12870;52.274;9.754;2023-03-19T07:44:18;11.50;99.90
24772;DHT22;12870;52.274;9.754;2023-03-19T07:46:44;11.50;99.90
24772;DHT22;12870;52.274;9.754;2023-03-19T07:49:09;11.50;99.90
24772;DHT22;12870;52.274;9.754;2023-03-19T07:51:35;11.50;99.90
24772;DHT22;12870;52.274;9.754;2023-03-19T07:54:01;11.60;99.90
24772;DHT22;12870;52.274;9.754;2023-03-19T07:56:27;11.70;99.90
24772;DHT22;12870;52.274;9.754;2023-03-19T07:58:52;11.80;99.90
24772;DHT22;12870;52.274;9.754;2023-03-19T08:01:18;11.80;99.90
24772;DHT22;12870;52.274;9.754;2023-03-19T08:03:44;11.90;99.90
24772;DHT22;12870;52.274;9.754;2023-03-19T08:06:10;12.00;99.90
24772;DHT22;12870;52.274;9.754;2023-03-19T08:08:35;12.10;99.90
24772;DHT22;12870;52.274;9.754;2023-03-19T08:11:02;12.20;99.90
24772;DHT22;12870;52.274;9.754;2023-03-19T08:13:28;12.20;99.90
24772;DHT22;12870;52.274;9.754;2023-03-19T08:15:54;12.30;99.90
24772;DHT22;12870;52.274;9.754;2023-03-19T08:18:21;12.40;99.90
24772;DHT22;12870;52.274;9.754;2023-03-19T08:20:47;12.40;99.90
24772;DHT22;12870;52.274;9.754;2023-03-19T08:23:14;12.50;99.90
24772;DHT22;12870;52.274;9.754;2023-03-19T08:25:39;12.60;99.90
24772;DHT22;12870;52.274;9.754;2023-03-19T08:28:05;12.60;99.90
24772;DHT22;12870;52.274;9.754;2023-03-19T08:30:31;12.70;99.90
24772;DHT22;12870;52.274;9.754;2023-03-19T08:32:57;12.80;99.90
24772;DHT22;12870;52.274;9.754;2023-03-19T08:35:24;12.80;99.90
24772;DHT22;12870;52.274;9.754;2023-03-19T08:37:52;13.00;99.90
24772;DHT22;12870;52.274;9.754;2023-03-19T08:40:18;13.10;99.90
24772;DHT22;12870;52.274;9.754;2023-03-19T08:42:45;13.20;99.90
24772;DHT22;12870;52.274;9.754;2023-03-19T08:45:12;13.40;99.90
24772;DHT22;12870;52.274;9.754;2023-03-19T08:47:39;13.50;99.90
24772;DHT22;12870;52.274;9.754;2023-03-19T08:50:05;13.70;99.90
24772;DHT22;12870;52.274;9.754;2023-03-19T08:52:31;13.80;99.90
24772;DHT22;12870;52.274;9.754;2023-03-19T08:54:57;13.90;99.90
24772;DHT22;12870;52.274;9.754;2023-03-19T08:57:23;14.00;99.90
24772;DHT22;12870;52.274;9.754;2023-03-19T08:59:48;14.00;99.90
24772;DHT22;12870;52.274;9.754;2023-03-19T09:02:14;14.10;99.90
24772;DHT22;12870;52.274;9.754;2023-03-19T09:04:43;14.10;99.90
24772;DHT22;12870;52.274;9.754;2023-03-19T09:07:10;14.30;99.90
24772;DHT22;12870;52.274;9.754;2023-03-19T09:09:38;14.30;99.90
24772;DHT22;12870;52.274;9.754;2023-03-19T09:12:05;14.40;99.90
24772;DHT22;12870;52.274;9.754;2023-03-19T09:14:32;14.40;99.90
24772;DHT22;12870;52.274;9.754;2023-03-19T09:16:58;14.40;99.90
24772;DHT22;12870;52.274;9.754;2023-03-19T09:19:24;14.40;99.90
24772;DHT22;12870;52.274;9.754;2023-03-19T09:21:50;14.60;99.90
24772;DHT22;12870;52.274;9.754;2023-03-19T09:24:16;14.70;99.90
24772;DHT22;12870;52.274;9.754;2023-03-19T09:26:43;14.80;99.90
24772;DHT22;12870;52.274;9.754;2023-03-19T09:29:09;14.90;99.90
24772;DHT22;12870;52.274;9.754;2023-03-19T09:31:36;15.10;99.90
24772;DHT22;12870;52.274;9.754;2023-03-19T09:34:02;15.10;99.90
24772;DHT22;12870;52.274;9.754;2023-03-19T09:36:27;15.10;99.90
24772;DHT22;12870;52.274;9.754;2023-03-19T09:38:53;15.20;99.90
24772;DHT22;12870;52.274;9.754;2023-03-19T09:41:28;15.30;99.90
24772;DHT22;12870;52.274;9.754;2023-03-19T09:44:00;15.50;99.90
24772;DHT22;12870;52.274;9.754;2023-03-19T09:49:29;15.70;99.90
24772;DHT22;12870;52.274;9.754;2023-03-19T09:54:41;16.20;99.90
24772;DHT22;12870;52.274;9.754;2023-03-19T09:57:09;16.40;99.90
24772;DHT22;12870;52.274;9.754;2023-03-19T09:59:35;16.30;99.90
24772;DHT22;12870;52.274;9.754;2023-03-19T10:05:06;16.70;99.90
24772;DHT22;12870;52.274;9.754;2023-03-19T10:15:43;17.20;99.90
24772;DHT22;12870;52.274;9.754;2023-03-19T10:18:16;17.50;99.90
24772;DHT22;12870;52.274;9.754;2023-03-19T10:20:50;17.80;99.90
24772;DHT22;12870;52.274;9.754;2023-03-19T10:25:56;18.20;99.90
24772;DHT22;12870;52.274;9.754;2023-03-19T10:28:22;18.00;99.90
24772;DHT22;12870;52.274;9.754;2023-03-19T10:36:30;17.60;99.90
24772;DHT22;12870;52.274;9.754;2023-03-19T10:38:57;17.30;99.90
24772;DHT22;12870;52.274;9.754;2023-03-19T10:44:24;17.30;99.90
24772;DHT22;12870;52.274;9.754;2023-03-19T10:46:51;17.40;99.90
24772;DHT22;12870;52.274;9.754;2023-03-19T10:49:17;17.50;99.90
24772;DHT22;12870;52.274;9.754;2023-03-19T10:51:46;17.40;99.90
24772;DHT22;12870;52.274;9.754;2023-03-19T10:56:48;17.20;99.90
24772;DHT22;12870;52.274;9.754;2023-03-19T10:59:29;17.20;99.90
24772;DHT22;12870;52.274;9.754;2023-03-19T11:01:57;17.40;99.90
24772;DHT22;12870;52.274;9.754;2023-03-19T11:04:25;17.30;99.90
24772;DHT22;12870;52.274;9.754;2023-03-19T11:06:55;17.40;99.90
24772;DHT22;12870;52.274;9.754;2023-03-19T11:09:37;17.60;99.90
24772;DHT22;12870;52.274;9.754;2023-03-19T11:12:35;17.80;99.90
24772;DHT22;12870;52.274;9.754;2023-03-19T11:15:02;18.20;99.90
24772;DHT22;12870;52.274;9.754;2023-03-19T11:17:38;18.30;99.90
24772;DHT22;12870;52.274;9.754;2023-03-19T11:20:28;18.70;99.90
24772;DHT22;12870;52.274;9.754;2023-03-19T11:22:55;19.00;99.90
24772;DHT22;12870;52.274;9.754;2023-03-19T11:25:30;19.00;99.90
24772;DHT22;12870;52.274;9.754;2023-03-19T11:30:38;19.40;99.90
24772;DHT22;12870;52.274;9.754;2023-03-19T11:38:28;19.40;99.90
24772;DHT22;12870;52.274;9.754;2023-03-19T11:41:15;19.40;99.90
24772;DHT22;12870;52.274;9.754;2023-03-19T11:49:43;18.70;99.90
24772;DHT22;12870;52.274;9.754;2023-03-19T11:52:32;19.40;99.90
24772;DHT22;12870;52.274;9.754;2023-03-19T12:00:20;20.10;99.90
24772;DHT22;12870;52.274;9.754;2023-03-19T12:22:00;18.80;99.90
24772;DHT22;12870;52.274;9.754;2023-03-19T12:27:52;20.40;99.90
24772;DHT22;12870;52.274;9.754;2023-03-19T12:36:14;21.20;99.90
24772;DHT22;12870;52.274;9.754;2023-03-19T12:38:48;21.50;99.90
24772;DHT22;12870;52.274;9.754;2023-03-19T12:41:37;21.40;99.90
24772;DHT22;12870;52.274;9.754;2023-03-19T12:44:26;21.50;99.90
24772;DHT22;12870;52.274;9.754;2023-03-19T12:47:24;21.90;99.90
24772;DHT22;12870;52.274;9.754;2023-03-19T12:50:12;22.00;99.90
24772;DHT22;12870;52.274;9.754;2023-03-19T12:52:40;23.10;99.90
24772;DHT22;12870;52.274;9.754;2023-03-19T12:55:17;23.10;99.90
24772;DHT22;12870;52.274;9.754;2023-03-19T12:57:50;23.20;99.90
24772;DHT22;12870;52.274;9.754;2023-03-19T13:03:01;21.50;99.90
24772;DHT22;12870;52.274;9.754;2023-03-19T13:06:24;21.40;99.90
24772;DHT22;12870;52.274;9.754;2023-03-19T13:10:57;21.60;99.90
24772;DHT22;12870;52.274;9.754;2023-03-19T13:16:28;20.80;99.90
24772;DHT22;12870;52.274;9.754;2023-03-19T13:21:36;20.00;99.90
24772;DHT22;12870;52.274;9.754;2023-03-19T13:26:34;19.70;99.90
24772;DHT22;12870;52.274;9.754;2023-03-19T13:29:13;19.50;99.90
24772;DHT22;12870;52.274;9.754;2023-03-19T13:31:41;19.40;99.90
24772;DHT22;12870;52.274;9.754;2023-03-19T13:36:44;20.00;99.90
24772;DHT22;12870;52.274;9.754;2023-03-19T13:39:17;20.60;99.90
24772;DHT22;12870;52.274;9.754;2023-03-19T13:46:47;19.30;99.90
24772;DHT22;12870;52.274;9.754;2023-03-19T13:54:52;18.10;99.90
24772;DHT22;12870;52.274;9.754;2023-03-19T13:57:32;17.90;99.90
24772;DHT22;12870;52.274;9.754;2023-03-19T14:03:05;17.30;99.90
24772;DHT22;12870;52.274;9.754;2023-03-19T14:05:47;17.40;99.90
24772;DHT22;12870;52.274;9.754;2023-03-19T14:08:45;17.30;99.90
24772;DHT22;12870;52.274;9.754;2023-03-19T14:11:30;17.20;99.90
24772;DHT22;12870;52.274;9.754;2023-03-19T14:14:00;17.30;99.90
24772;DHT22;12870;52.274;9.754;2023-03-19T14:16:36;17.20;99.90
24772;DHT22;12870;52.274;9.754;2023-03-19T14:19:08;16.80;99.90
24772;DHT22;12870;52.274;9.754;2023-03-19T14:21:40;16.60;99.90
24772;DHT22;12870;52.274;9.754;2023-03-19T14:24:27;16.70;99.90
24772;DHT22;12870;52.274;9.754;2023-03-19T14:26:53;16.70;99.90
24772;DHT22;12870;52.274;9.754;2023-03-19T14:29:21;16.70;99.90
24772;DHT22;12870;52.274;9.754;2023-03-19T14:31:53;16.80;99.90
24772;DHT22;12870;52.274;9.754;2023-03-19T14:34:23;17.00;99.90
24772;DHT22;12870;52.274;9.754;2023-03-19T14:36:58;18.10;99.90
24772;DHT22;12870;52.274;9.754;2023-03-19T14:39:39;18.90;99.90
24772;DHT22;12870;52.274;9.754;2023-03-19T14:42:31;19.40;99.90
24772;DHT22;12870;52.274;9.754;2023-03-19T14:50:49;21.10;99.90
24772;DHT22;12870;52.274;9.754;2023-03-19T14:53:23;21.20;99.90
24772;DHT22;12870;52.274;9.754;2023-03-19T14:55:51;20.80;99.90
24772;DHT22;12870;52.274;9.754;2023-03-19T14:58:21;20.50;99.90
24772;DHT22;12870;52.274;9.754;2023-03-19T15:00:51;20.70;99.90
24772;DHT22;12870;52.274;9.754;2023-03-19T15:03:29;20.20;99.90
24772;DHT22;12870;52.274;9.754;2023-03-19T15:06:01;20.00;99.90
24772;DHT22;12870;52.274;9.754;2023-03-19T15:08:30;20.10;99.90
24772;DHT22;12870;52.274;9.754;2023-03-19T15:14:17;18.90;99.90
24772;DHT22;12870;52.274;9.754;2023-03-19T15:19:25;18.60;99.90
24772;DHT22;12870;52.274;9.754;2023-03-19T15:22:47;18.40;99.90
24772;DHT22;12870;52.274;9.754;2023-03-19T15:24:48;18.40;99.90
24772;DHT22;12870;52.274;9.754;2023-03-19T15:27:22;18.10;99.90
24772;DHT22;12870;52.274;9.754;2023-03-19T15:29:48;18.10;99.90
24772;DHT22;12870;52.274;9.754;2023-03-19T15:32:35;18.10;99.90
24772;DHT22;12870;52.274;9.754;2023-03-19T15:35:02;18.30;99.90
24772;DHT22;12870;52.274;9.754;2023-03-19T15:37:29;18.30;99.90
24772;DHT22;12870;52.274;9.754;2023-03-19T15:39:57;18.30;99.90
24772;DHT22;12870;52.274;9.754;2023-03-19T15:42:25;18.10;99.90
24772;DHT22;12870;52.274;9.754;2023-03-19T15:44:52;18.20;99.90
24772;DHT22;12870;52.274;9.754;2023-03-19T15:47:23;18.50;99.90
24772;DHT22;12870;52.274;9.754;2023-03-19T15:50:00;19.30;99.90
24772;DHT22;12870;52.274;9.754;2023-03-19T15:52:27;20.40;99.90
24772;DHT22;12870;52.274;9.754;2023-03-19T15:54:55;21.40;99.90
24772;DHT22;12870;52.274;9.754;2023-03-19T15:57:22;21.70;99.90
24772;DHT22;12870;52.274;9.754;2023-03-19T15:59:51;20.40;99.90
24772;DHT22;12870;52.274;9.754;2023-03-19T16:02:40;20.00;99.90
24772;DHT22;12870;52.274;9.754;2023-03-19T16:05:06;19.20;99.90
24772;DHT22;12870;52.274;9.754;2023-03-19T16:07:51;18.60;99.90
24772;DHT22;12870;52.274;9.754;2023-03-19T16:10:54;18.60;99.90
24772;DHT22;12870;52.274;9.754;2023-03-19T16:13:40;18.60;99.90
24772;DHT22;12870;52.274;9.754;2023-03-19T16:16:17;18.50;99.90
24772;DHT22;12870;52.274;9.754;2023-03-19T16:18:54;18.50;99.90
24772;DHT22;12870;52.274;9.754;2023-03-19T16:24:03;18.10;99.90
24772;DHT22;12870;52.274;9.754;2023-03-19T16:26:42;18.20;99.90
24772;DHT22;12870;52.274;9.754;2023-03-19T16:29:25;18.00;99.90
24772;DHT22;12870;52.274;9.754;2023-03-19T16:32:00;18.00;99.90
24772;DHT22;12870;52.274;9.754;2023-03-19T16:34:36;17.90;99.90
24772;DHT22;12870;52.274;9.754;2023-03-19T16:40:00;17.60;99.90
24772;DHT22;12870;52.274;9.754;2023-03-19T16:42:36;17.50;99.90
24772;DHT22;12870;52.274;9.754;2023-03-19T16:45:30;17.40;99.90
24772;DHT22;12870;52.274;9.754;2023-03-19T16:47:58;17.10;99.90
24772;DHT22;12870;52.274;9.754;2023-03-19T16:52:58;16.70;99.90
24772;DHT22;12870;52.274;9.754;2023-03-19T16:55:27;16.60;99.90
24772;DHT22;12870;52.274;9.754;2023-03-19T17:00:26;16.30;99.90
24772;DHT22;12870;52.274;9.754;2023-03-19T17:02:53;16.20;99.90
24772;DHT22;12870;52.274;9.754;2023-03-19T17:05:23;16.00;99.90
24772;DHT22;12870;52.274;9.754;2023-03-19T17:07:49;15.90;99.90
24772;DHT22;12870;52.274;9.754;2023-03-19T17:10:17;15.90;99.90
24772;DHT22;12870;52.274;9.754;2023-03-19T17:12:44;15.80;99.90
24772;DHT22;12870;52.274;9.754;2023-03-19T17:15:22;15.80;99.90
24772;DHT22;12870;52.274;9.754;2023-03-19T17:17:49;15.80;99.90
24772;DHT22;12870;52.274;9.754;2023-03-19T17:20:18;15.70;99.90
24772;DHT22;12870;52.274;9.754;2023-03-19T17:22:45;15.60;99.90
24772;DHT22;12870;52.274;9.754;2023-03-19T17:25:12;15.60;99.90
24772;DHT22;12870;52.274;9.754;2023-03-19T17:27:38;15.50;99.90
24772;DHT22;12870;52.274;9.754;2023-03-19T17:30:04;15.40;99.90
24772;DHT22;12870;52.274;9.754;2023-03-19T17:32:31;15.40;99.90
24772;DHT22;12870;52.274;9.754;2023-03-19T17:34:57;15.40;99.90
24772;DHT22;12870;52.274;9.754;2023-03-19T17:37:22;15.30;99.90
24772;DHT22;12870;52.274;9.754;2023-03-19T17:39:49;15.20;99.90
24772;DHT22;12870;52.274;9.754;2023-03-19T17:42:17;15.20;99.90
24772;DHT22;12870;52.274;9.754;2023-03-19T17:44:44;15.20;99.90
24772;DHT22;12870;52.274;9.754;2023-03-19T17:47:10;15.20;99.90
24772;DHT22;12870;52.274;9.754;2023-03-19T17:49:36;15.10;99.90
24772;DHT22;12870;52.274;9.754;2023-03-19T17:52:02;15.00;99.90
24772;DHT22;12870;52.274;9.754;2023-03-19T17:54:28;15.00;99.90
24772;DHT22;12870;52.274;9.754;2023-03-19T17:56:54;15.00;99.90
24772;DHT22;12870;52.274;9.754;2023-03-19T17:59:20;15.00;99.90